Time;durP1;ratioP1;P1;durP2;ratioP2;P2;SDS_P1;SDS_P2;PMS_P1;PMS_P2;Temp;Humidity;BMP_temperature;BMP_pressure;BME280_temperature;BME280_humidity;BME280_pressure;Samples;Min_cycle;Max_cycle;Signal;HPM_P1;HPM_P2
2022/07/08 00:00:23;;;;;;;6.03;1.88;;;;;;;13.58;76.73;103096.69;5011765;28;20058;-45
2022/07/08 00:02:49;;;;;;;7.15;1.95;;;;;;;13.54;77.27;103098.66;5013553;28;20522;-44
2022/07/08 00:05:16;;;;;;;6.82;1.77;;;;;;;13.45;78.14;103092.28;5013754;28;20055;-43
2022/07/08 00:07:43;;;;;;;8.15;1.63;;;;;;;13.33;78.61;103088.97;5013687;28;20069;-44
2022/07/08 00:10:09;;;;;;;5.80;1.75;;;;;;;13.28;79.13;103099.38;5016557;28;20042;-44
2022/07/08 00:12:36;;;;;;;7.28;1.65;;;;;;;13.22;78.92;103104.41;5016663;28;20054;-44
2022/07/08 00:15:03;;;;;;;11.95;2.08;;;;;;;13.15;79.36;103103.72;5017138;28;20053;-44
2022/07/08 00:17:29;;;;;;;5.43;1.52;;;;;;;13.09;79.20;103095.38;5016418;28;20054;-44
2022/07/08 00:19:56;;;;;;;7.38;1.95;;;;;;;13.07;79.80;103092.34;5015344;28;20601;-43
2022/07/08 00:22:22;;;;;;;7.00;1.77;;;;;;;12.99;79.93;103104.25;5017096;28;20054;-44
2022/07/08 00:24:49;;;;;;;10.50;1.80;;;;;;;12.98;80.21;103106.19;5016188;28;20051;-43
2022/07/08 00:27:15;;;;;;;8.68;1.80;;;;;;;13.00;81.05;103103.88;5016837;28;20513;-43
2022/07/08 00:29:41;;;;;;;9.32;1.83;;;;;;;13.06;80.81;103101.50;5016468;28;20060;-46
2022/07/08 00:32:08;;;;;;;7.88;1.80;;;;;;;13.12;80.21;103101.84;5016797;28;20495;-45
2022/07/08 00:34:35;;;;;;;7.07;2.00;;;;;;;13.10;80.97;103099.56;5016893;28;20078;-44
2022/07/08 00:37:02;;;;;;;4.85;2.05;;;;;;;13.08;81.13;103099.19;5016505;28;20055;-43
2022/07/08 00:39:29;;;;;;;4.82;1.65;;;;;;;13.05;81.09;103100.00;5016420;28;20228;-42
2022/07/08 00:41:55;;;;;;;7.55;1.75;;;;;;;13.06;80.99;103100.75;5016067;28;20054;-43
2022/07/08 00:44:22;;;;;;;4.68;1.70;;;;;;;13.06;81.21;103103.44;5016871;28;20050;-43
2022/07/08 00:46:48;;;;;;;4.75;1.52;;;;;;;13.06;81.77;103100.75;5015986;28;20065;-43
2022/07/08 00:49:15;;;;;;;4.20;2.03;;;;;;;13.00;82.02;103097.75;5016819;28;20061;-45
2022/07/08 00:51:42;;;;;;;3.03;1.63;;;;;;;13.00;82.46;103100.44;5015974;28;20050;-43
2022/07/08 00:54:13;;;;;;;5.97;1.90;;;;;;;13.01;81.87;103102.72;5015107;28;20487;-44
2022/07/08 00:56:39;;;;;;;5.03;1.77;;;;;;;13.05;83.02;103104.59;5016593;28;20064;-44
2022/07/08 00:59:07;;;;;;;3.30;1.60;;;;;;;13.04;83.24;103098.47;5015590;28;20078;-44
2022/07/08 01:01:33;;;;;;;5.10;1.80;;;;;;;13.07;82.42;103100.34;5016269;28;20057;-45
2022/07/08 01:04:00;;;;;;;6.47;1.90;;;;;;;13.11;82.87;103109.09;5015937;28;20050;-43
2022/07/08 01:06:26;;;;;;;8.63;1.90;;;;;;;13.16;82.82;103107.94;5015527;28;20078;-44
2022/07/08 01:08:53;;;;;;;5.22;1.80;;;;;;;13.23;82.34;103113.19;5016221;28;20061;-46
2022/07/08 01:11:19;;;;;;;3.47;1.83;;;;;;;13.26;82.91;103109.69;5016210;28;20057;-45
2022/07/08 01:13:47;;;;;;;7.70;1.80;;;;;;;13.29;83.10;103115.00;5016232;28;20458;-43
2022/07/08 01:16:14;;;;;;;6.28;2.10;;;;;;;13.30;82.87;103121.88;5015686;28;20060;-43
2022/07/08 01:18:41;;;;;;;6.93;1.75;;;;;;;13.33;82.57;103120.31;5016082;28;20105;-44
2022/07/08 01:21:08;;;;;;;10.25;2.22;;;;;;;13.29;81.61;103120.38;5014919;28;20525;-44
2022/07/08 01:23:34;;;;;;;6.85;1.90;;;;;;;13.32;82.22;103116.13;5015562;28;20043;-44
2022/07/08 01:26:08;;;;;;;4.75;1.67;;;;;;;13.33;83.15;103117.66;5016001;28;20161;-44
2022/07/08 01:28:41;;;;;;;7.35;1.95;;;;;;;13.31;82.52;103109.25;5015431;28;20477;-44
2022/07/08 01:31:08;;;;;;;8.60;1.63;;;;;;;13.26;82.08;103120.41;5015920;28;20052;-44
2022/07/08 01:33:35;;;;;;;5.50;1.98;;;;;;;13.12;82.34;103110.63;5015064;28;20498;-45
2022/07/08 01:36:01;;;;;;;6.13;2.00;;;;;;;13.01;82.96;103107.28;5015852;28;20063;-44
2022/07/08 01:38:28;;;;;;;5.20;1.80;;;;;;;12.87;83.42;103107.44;5015607;28;20589;-45
2022/07/08 01:40:55;;;;;;;7.40;2.63;;;;;;;12.75;83.52;103110.63;5015289;28;20166;-43
2022/07/08 01:43:21;;;;;;;3.90;1.55;;;;;;;12.62;83.81;103111.13;5015364;28;20514;-44
2022/07/08 01:45:48;;;;;;;5.78;1.88;;;;;;;12.54;84.43;103108.91;5015650;28;20268;-46
2022/07/08 01:48:14;;;;;;;6.03;2.00;;;;;;;12.43;84.28;103121.59;5015088;28;20055;-44
2022/07/08 01:50:41;;;;;;;10.13;2.10;;;;;;;12.33;84.73;103107.94;5013673;28;20050;-44
2022/07/08 01:53:07;;;;;;;4.22;2.00;;;;;;;12.27;85.39;103106.84;5015117;28;20519;-46
2022/07/08 01:55:34;;;;;;;5.35;1.70;;;;;;;12.17;85.67;103102.34;5015372;28;20054;-44
2022/07/08 01:58:00;;;;;;;5.35;1.98;;;;;;;12.13;85.74;103098.19;5015573;28;20050;-47
2022/07/08 02:00:26;;;;;;;7.22;1.98;;;;;;;12.06;85.75;103098.22;5014861;28;20060;-46
2022/07/08 02:02:53;;;;;;;4.65;2.10;;;;;;;12.04;86.05;103098.63;5014413;28;20499;-46
2022/07/08 02:05:19;;;;;;;8.55;2.30;;;;;;;11.98;86.17;103094.88;5015034;28;20141;-44
2022/07/08 02:07:46;;;;;;;7.03;1.95;;;;;;;11.93;86.47;103103.28;5015253;28;20050;-46
2022/07/08 02:10:12;;;;;;;6.68;2.00;;;;;;;11.90;87.03;103102.16;5013659;28;20113;-45
2022/07/08 02:12:38;;;;;;;6.28;2.10;;;;;;;11.81;87.49;103104.50;5015303;28;20057;-44
2022/07/08 02:15:07;;;;;;;6.47;2.20;;;;;;;11.81;86.78;103111.75;5014662;28;20055;-44
2022/07/08 02:17:42;;;;;;;5.40;1.83;;;;;;;11.79;87.10;103103.38;5013435;28;20666;-44
2022/07/08 02:20:11;;;;;;;6.88;2.08;;;;;;;11.76;87.26;103114.78;5014740;28;20426;-43
2022/07/08 02:22:38;;;;;;;6.07;2.30;;;;;;;11.73;86.92;103103.00;5014664;28;20149;-44
2022/07/08 02:25:06;;;;;;;6.30;2.00;;;;;;;11.68;87.50;103104.16;5015069;28;20133;-44
2022/07/08 02:27:32;;;;;;;3.72;1.73;;;;;;;11.62;88.07;103104.94;5014312;28;20892;-43
2022/07/08 02:29:59;;;;;;;4.40;1.98;;;;;;;11.57;88.07;103108.81;5014735;28;20536;-43
2022/07/08 02:32:25;;;;;;;5.03;2.13;;;;;;;11.55;88.37;103105.00;5013863;28;20148;-43
2022/07/08 02:34:51;;;;;;;5.65;1.83;;;;;;;11.52;88.59;103106.53;5014657;28;20054;-50
2022/07/08 02:37:20;;;;;;;4.95;2.13;;;;;;;11.52;88.51;103100.44;5014218;28;20054;-46
2022/07/08 02:39:47;;;;;;;4.10;1.90;;;;;;;11.52;88.34;103100.44;5014446;28;20053;-43
2022/07/08 02:42:13;;;;;;;5.70;2.13;;;;;;;11.49;88.99;103093.22;5013946;28;20096;-43
2022/07/08 02:44:39;;;;;;;3.60;1.88;;;;;;;11.46;88.46;103094.75;5013206;28;20057;-45
2022/07/08 02:47:07;;;;;;;8.70;2.10;;;;;;;11.44;88.94;103102.38;5014283;28;20061;-45
2022/07/08 02:49:33;;;;;;;4.45;1.98;;;;;;;11.38;89.22;103098.59;5013796;28;20077;-46
2022/07/08 02:52:00;;;;;;;5.10;2.13;;;;;;;11.31;89.33;103096.72;5013383;28;20214;-43
2022/07/08 02:54:26;;;;;;;5.05;2.00;;;;;;;11.26;89.68;103091.78;5014651;28;20058;-44
2022/07/08 02:56:53;;;;;;;7.05;2.20;;;;;;;11.27;89.78;103089.88;5014196;28;20502;-44
2022/07/08 02:59:19;;;;;;;8.73;2.45;;;;;;;11.22;89.79;103088.34;5014526;28;20150;-43
2022/07/08 03:01:45;;;;;;;8.65;2.47;;;;;;;11.23;89.80;103091.78;5012656;28;20076;-44
2022/07/08 03:04:12;;;;;;;4.43;2.08;;;;;;;11.26;89.59;103093.69;5014569;28;20175;-43
2022/07/08 03:06:41;;;;;;;6.38;2.00;;;;;;;11.22;89.48;103093.69;5013318;28;20046;-44
2022/07/08 03:09:07;;;;;;;2.60;1.88;;;;;;;11.22;89.60;103098.25;5013683;28;20536;-43
2022/07/08 03:11:34;;;;;;;6.18;2.30;;;;;;;11.21;89.97;103094.06;5014059;28;20050;-44
2022/07/08 03:14:00;;;;;;;4.63;2.17;;;;;;;11.19;89.62;103096.41;5013355;28;20054;-43
2022/07/08 03:16:30;;;;;;;10.32;2.25;;;;;;;11.20;89.54;103103.97;5013882;28;20050;-43
2022/07/08 03:18:57;;;;;;;5.75;1.90;;;;;;;11.18;89.83;103102.88;5014197;28;20047;-44
2022/07/08 03:21:23;;;;;;;6.88;2.28;;;;;;;11.14;89.51;103102.13;5014043;28;20418;-44
2022/07/08 03:23:50;;;;;;;6.43;2.00;;;;;;;11.12;90.18;103109.75;5013120;28;20073;-44
2022/07/08 03:26:16;;;;;;;5.90;2.20;;;;;;;11.10;90.67;103110.13;5014231;28;20054;-44
2022/07/08 03:28:43;;;;;;;7.38;2.30;;;;;;;11.12;90.46;103104.41;5014116;28;20438;-46
2022/07/08 03:31:09;;;;;;;4.63;2.05;;;;;;;11.12;90.47;103107.84;5013744;28;20406;-44
2022/07/08 03:33:36;;;;;;;5.97;2.58;;;;;;;11.08;90.78;103104.41;5014161;28;20057;-46
2022/07/08 03:36:02;;;;;;;7.65;2.30;;;;;;;11.07;90.77;103107.47;5013569;28;20166;-44
2022/07/08 03:38:29;;;;;;;4.18;2.42;;;;;;;11.09;90.46;103113.94;5014061;28;20057;-45
2022/07/08 03:43:41;;;;;;;6.20;2.40;;;;;;;11.11;90.74;103108.22;5013710;28;20088;-44
2022/07/08 03:46:08;;;;;;;12.20;2.67;;;;;;;11.13;90.84;103116.59;5013875;28;20051;-43
2022/07/08 03:48:34;;;;;;;7.45;2.45;;;;;;;11.11;90.67;103114.31;5012711;28;20057;-44
2022/07/08 03:51:01;;;;;;;3.42;2.13;;;;;;;11.11;90.72;103114.31;5012473;28;20060;-47
2022/07/08 03:53:28;;;;;;;5.97;2.33;;;;;;;11.15;91.18;103115.06;5012485;28;20054;-44
2022/07/08 03:55:55;;;;;;;5.10;2.22;;;;;;;11.17;91.04;103115.44;5012639;28;20052;-43
2022/07/08 03:58:21;;;;;;;5.13;2.40;;;;;;;11.22;90.98;103117.69;5012285;28;20061;-46
2022/07/08 04:00:48;;;;;;;5.85;2.10;;;;;;;11.26;90.82;103117.69;5013671;28;20057;-44
2022/07/08 04:03:14;;;;;;;8.85;2.45;;;;;;;11.27;90.87;103106.63;5012802;28;20499;-45
2022/07/08 04:05:40;;;;;;;4.22;2.20;;;;;;;11.31;91.24;103107.38;5013139;28;20057;-43
2022/07/08 04:08:07;;;;;;;9.25;2.40;;;;;;;11.38;90.93;103119.94;5013549;28;20053;-44
2022/07/08 04:10:33;;;;;;;7.32;2.55;;;;;;;11.45;91.36;103121.81;5013351;28;20054;-43
2022/07/08 04:13:00;;;;;;;7.93;2.30;;;;;;;11.51;90.67;103123.69;5013448;28;20505;-44
2022/07/08 04:15:26;;;;;;;6.18;3.10;;;;;;;11.55;90.72;103135.09;5013577;28;20391;-43
2022/07/08 04:17:53;;;;;;;6.20;2.40;;;;;;;11.59;91.16;103135.84;5012689;28;20050;-45
2022/07/08 04:20:19;;;;;;;9.48;2.83;;;;;;;11.68;90.85;103130.06;5010644;28;20486;-45
2022/07/08 04:22:46;;;;;;;7.07;2.10;;;;;;;11.76;90.77;103131.56;5013273;28;20062;-46
2022/07/08 04:25:12;;;;;;;5.93;2.50;;;;;;;11.81;90.71;103141.84;5012788;28;20046;-45
2022/07/08 04:27:38;;;;;;;5.60;2.58;;;;;;;11.84;90.24;103135.75;5013399;28;20054;-44
2022/07/08 04:30:05;;;;;;;5.97;2.70;;;;;;;11.90;90.63;103136.09;5011904;28;20483;-44
2022/07/08 04:32:32;;;;;;;10.48;2.40;;;;;;;11.91;90.85;103142.97;5013241;28;20537;-44
2022/07/08 04:34:59;;;;;;;8.10;2.45;;;;;;;11.92;90.17;103142.56;5012543;28;20064;-45
2022/07/08 04:37:26;;;;;;;6.43;2.28;;;;;;;11.97;90.73;103138.72;5013063;28;20042;-45
2022/07/08 04:39:53;;;;;;;10.18;2.92;;;;;;;11.93;90.04;103144.09;5012386;28;20077;-44
2022/07/08 04:42:19;;;;;;;5.90;2.30;;;;;;;11.97;90.66;103144.81;5013066;28;20158;-44
2022/07/08 04:44:46;;;;;;;7.28;2.28;;;;;;;11.99;90.74;103152.44;5012938;28;20050;-44
2022/07/08 04:47:12;;;;;;;5.35;2.40;;;;;;;12.06;90.22;103159.63;5012888;28;20042;-49
2022/07/08 04:49:38;;;;;;;5.20;2.10;;;;;;;12.03;89.88;103156.59;5012938;28;20046;-44
2022/07/08 04:52:06;;;;;;;5.20;2.80;;;;;;;12.09;89.96;103156.19;5013023;28;20058;-45
2022/07/08 04:54:33;;;;;;;7.13;2.33;;;;;;;12.14;90.17;103161.88;5027632;28;20086;-45
2022/07/08 04:57:00;;;;;;;7.15;2.30;;;;;;;12.21;90.50;103169.84;5014351;28;20055;-43
2022/07/08 04:59:26;;;;;;;5.45;2.30;;;;;;;12.25;89.86;103172.50;5015453;28;20161;-44
2022/07/08 05:01:52;;;;;;;7.65;2.65;;;;;;;12.31;89.83;103160.25;5014684;28;20058;-44
2022/07/08 05:04:19;;;;;;;6.53;2.75;;;;;;;12.37;89.64;103169.34;5015672;28;20117;-44
2022/07/08 05:06:47;;;;;;;6.90;2.50;;;;;;;12.44;89.57;103179.97;5016220;28;20105;-45
2022/07/08 05:09:14;;;;;;;4.93;2.05;;;;;;;12.51;89.80;103171.91;5015780;28;20076;-43
2022/07/08 05:11:40;;;;;;;7.35;2.45;;;;;;;12.60;88.98;103176.81;5014484;28;20058;-43
2022/07/08 05:14:12;;;;;;;9.85;2.60;;;;;;;12.70;88.68;103181.31;5014402;28;20055;-43
2022/07/08 05:16:40;;;;;;;11.68;2.80;;;;;;;12.79;88.14;103180.84;5013897;28;20057;-44
2022/07/08 05:19:07;;;;;;;6.63;2.45;;;;;;;12.90;88.21;103184.94;5013597;28;20138;-46
2022/07/08 05:21:36;;;;;;;7.47;2.45;;;;;;;12.95;87.43;103189.84;5014042;28;20061;-45
2022/07/08 05:24:06;;;;;;;6.65;2.15;;;;;;;13.02;87.65;103194.38;5013497;28;20509;-44
2022/07/08 05:26:33;;;;;;;5.32;2.33;;;;;;;13.15;86.67;103191.97;5016073;28;20057;-44
2022/07/08 05:29:00;;;;;;;6.95;2.30;;;;;;;13.30;87.09;103193.34;5014854;28;20050;-43
2022/07/08 05:31:31;;;;;;;6.18;2.60;;;;;;;13.46;86.46;103196.22;5015533;28;20105;-43
2022/07/08 05:33:58;;;;;;;8.55;2.60;;;;;;;13.74;86.25;103194.38;5015991;28;20055;-45
2022/07/08 05:36:25;;;;;;;4.00;1.83;;;;;;;14.13;85.34;103194.59;5015311;28;20113;-43
2022/07/08 05:38:51;;;;;;;7.38;2.08;;;;;;;15.14;81.81;103194.50;5015629;28;20058;-44
2022/07/08 05:41:18;;;;;;;7.32;2.35;;;;;;;15.81;78.67;103195.88;5013855;28;20050;-43
2022/07/08 05:43:44;;;;;;;8.00;2.13;;;;;;;15.98;75.51;103194.72;5012059;28;20054;-44
2022/07/08 05:46:11;;;;;;;10.05;2.22;;;;;;;16.16;76.03;103194.31;5013387;28;20141;-44
2022/07/08 05:48:37;;;;;;;5.95;2.22;;;;;;;16.37;74.72;103193.06;5012457;28;20060;-44
2022/07/08 05:51:04;;;;;;;7.85;1.90;;;;;;;16.81;72.75;103190.84;5014831;28;20057;-46
2022/07/08 05:53:30;;;;;;;7.45;2.25;;;;;;;16.51;74.40;103194.66;5013535;28;20046;-44
2022/07/08 05:55:57;;;;;;;6.43;2.30;;;;;;;16.18;75.16;103199.28;5014179;28;20129;-44
2022/07/08 05:58:23;;;;;;;9.02;2.10;;;;;;;16.04;77.70;103202.28;5012688;28;20046;-46
2022/07/08 06:00:50;;;;;;;7.85;2.00;;;;;;;15.88;78.21;103208.38;5013558;28;20054;-45
2022/07/08 06:03:16;;;;;;;9.27;2.22;;;;;;;15.79;78.09;103200.13;5015000;28;20125;-46
2022/07/08 06:05:43;;;;;;;6.13;1.85;;;;;;;15.78;77.19;103209.38;5009631;28;20046;-44
2022/07/08 06:08:09;;;;;;;8.82;2.00;;;;;;;15.94;78.52;103207.47;5013294;28;20440;-44
2022/07/08 06:10:35;;;;;;;6.95;1.92;;;;;;;16.05;77.76;103201.84;5011813;28;20057;-46
2022/07/08 06:13:02;;;;;;;4.78;2.03;;;;;;;16.11;76.93;103210.19;5029170;28;20577;-44
2022/07/08 06:15:28;;;;;;;9.27;2.17;;;;;;;16.10;77.43;103212.09;5013575;28;20057;-44
2022/07/08 06:17:55;;;;;;;6.38;2.25;;;;;;;16.17;76.56;103205.81;5013528;28;20053;-45
2022/07/08 06:20:21;;;;;;;8.32;2.10;;;;;;;16.25;77.21;103202.56;5013659;28;20054;-44
2022/07/08 06:22:50;;;;;;;10.10;2.75;;;;;;;16.30;75.41;103207.44;5012674;28;20042;-44
2022/07/08 06:25:17;;;;;;;8.52;2.00;;;;;;;16.36;76.58;103209.63;5012021;28;20113;-44
2022/07/08 06:27:43;;;;;;;13.70;2.75;;;;;;;16.39;76.88;103204.16;5013671;28;20229;-44
2022/07/08 06:30:13;;;;;;;9.63;2.03;;;;;;;16.47;76.57;103202.03;5014750;28;20062;-44
2022/07/08 06:32:40;;;;;;;7.57;1.95;;;;;;;16.69;76.08;103203.06;5012890;28;20055;-43
2022/07/08 06:35:07;;;;;;;12.90;2.25;;;;;;;16.78;73.15;103203.22;5014554;28;20088;-44
2022/07/08 06:37:33;;;;;;;14.80;2.25;;;;;;;17.23;73.09;103205.84;5014578;28;20046;-44
2022/07/08 06:40:00;;;;;;;6.43;2.08;;;;;;;17.73;71.09;103207.16;5013897;28;20468;-44
2022/07/08 06:42:26;;;;;;;4.28;2.20;;;;;;;18.93;68.49;103213.38;5012968;28;20050;-44
2022/07/08 06:44:53;;;;;;;7.45;2.05;;;;;;;20.07;62.91;103211.13;5013817;28;20060;-46
2022/07/08 06:47:21;;;;;;;5.95;1.92;;;;;;;20.41;62.01;103218.28;5014116;28;20133;-44
2022/07/08 06:49:47;;;;;;;10.10;2.17;;;;;;;20.88;62.00;103215.16;5014457;28;20056;-44
2022/07/08 06:52:14;;;;;;;4.57;1.80;;;;;;;22.37;55.03;103213.78;5013533;28;20567;-44
2022/07/08 06:54:40;;;;;;;8.32;1.70;;;;;;;24.06;51.58;103227.00;5013496;28;20054;-46
2022/07/08 06:57:07;;;;;;;9.82;2.20;;;;;;;22.78;51.82;103222.22;5014105;28;20157;-44
2022/07/08 06:59:41;;;;;;;3.90;1.65;;;;;;;23.75;52.60;103224.09;5014182;28;20474;-44
2022/07/08 07:02:28;;;;;;;6.40;1.65;;;;;;;25.00;47.78;103223.88;5012985;28;20046;-47
2022/07/08 07:04:54;;;;;;;12.13;1.77;;;;;;;25.81;47.33;103217.31;5013902;28;20070;-44
2022/07/08 07:07:21;;;;;;;6.35;2.10;;;;;;;26.01;44.24;103219.88;5013101;28;20490;-44
2022/07/08 07:09:47;;;;;;;10.05;2.53;;;;;;;27.68;41.85;103219.41;5014104;28;20058;-44
2022/07/08 07:12:15;;;;;;;11.20;1.77;;;;;;;27.57;40.20;103224.91;5013766;28;20059;-44
2022/07/08 07:14:41;;;;;;;8.15;2.05;;;;;;;27.40;42.53;103227.66;5014061;28;20050;-46
2022/07/08 07:17:08;;;;;;;7.50;2.70;;;;;;;28.25;38.65;103228.94;5014085;28;20066;-45
2022/07/08 07:19:34;;;;;;;5.88;1.83;;;;;;;26.33;41.26;103225.28;5009664;28;20133;-47
2022/07/08 07:22:01;;;;;;;6.75;2.42;;;;;;;25.00;45.76;103226.63;5012500;28;20043;-44
2022/07/08 07:24:28;;;;;;;9.88;2.28;;;;;;;24.17;46.87;103242.72;5012649;28;20057;-45
2022/07/08 07:26:54;;;;;;;4.18;2.00;;;;;;;24.15;46.87;103237.00;5011073;28;20057;-45
2022/07/08 07:29:21;;;;;;;9.80;2.53;;;;;;;24.06;48.78;103234.41;5009517;28;20173;-44
2022/07/08 07:31:47;;;;;;;7.68;1.92;;;;;;;23.96;50.05;103236.53;5012546;28;20061;-46
2022/07/08 07:34:14;;;;;;;4.65;2.13;;;;;;;23.89;49.37;103234.19;5010544;28;20050;-44
2022/07/08 07:36:40;;;;;;;5.82;1.95;;;;;;;24.64;48.91;103230.69;5010595;28;20062;-45
2022/07/08 07:39:09;;;;;;;5.50;2.25;;;;;;;24.74;47.57;103232.03;5012305;28;20491;-47
2022/07/08 07:41:37;;;;;;;11.02;2.22;;;;;;;24.18;47.15;103228.66;5011818;28;20057;-46
2022/07/08 07:44:04;;;;;;;6.60;2.45;;;;;;;22.85;52.24;103230.00;5012285;28;20093;-44
2022/07/08 07:46:30;;;;;;;5.25;1.98;;;;;;;22.20;51.70;103215.38;5011528;28;20054;-45
2022/07/08 07:48:57;;;;;;;7.03;1.90;;;;;;;21.59;54.54;103209.34;5011285;28;20145;-46
2022/07/08 07:51:24;;;;;;;5.07;2.10;;;;;;;21.48;52.97;103199.00;5010745;28;20058;-45
2022/07/08 07:53:51;;;;;;;12.65;2.42;;;;;;;21.77;55.09;103209.25;5012253;28;20051;-45
2022/07/08 07:56:17;;;;;;;4.57;1.90;;;;;;;23.44;51.08;103213.72;5011841;28;20137;-45
2022/07/08 07:58:44;;;;;;;8.18;1.70;;;;;;;24.12;49.44;103208.03;5011092;28;20520;-44
2022/07/08 08:01:10;;;;;;;7.30;2.20;;;;;;;24.76;49.22;103215.97;5011949;28;20081;-49
2022/07/08 08:03:37;;;;;;;9.82;2.38;;;;;;;24.48;46.21;103214.91;5012493;28;20050;-44
2022/07/08 08:06:04;;;;;;;8.50;2.08;;;;;;;24.59;46.38;103220.47;5012785;28;20054;-49
2022/07/08 08:08:31;;;;;;;7.65;2.15;;;;;;;24.29;45.37;103219.16;5011711;28;20060;-46
2022/07/08 08:10:59;;;;;;;4.82;1.80;;;;;;;25.04;43.53;103212.78;5009677;28;20052;-46
2022/07/08 08:13:26;;;;;;;6.00;1.80;;;;;;;24.72;47.11;103226.31;5012347;28;20527;-48
2022/07/08 08:15:54;;;;;;;6.05;1.67;;;;;;;24.81;44.74;103226.16;5010590;28;20176;-50
2022/07/08 08:18:20;;;;;;;3.63;1.67;;;;;;;24.81;46.89;103228.13;5012768;28;20055;-46
2022/07/08 08:20:47;;;;;;;5.72;1.85;;;;;;;24.38;47.03;103222.50;5012117;28;20517;-48
2022/07/08 08:23:14;;;;;;;6.80;1.95;;;;;;;24.24;45.32;103221.31;5012268;28;20583;-50
2022/07/08 08:25:49;;;;;;;9.95;1.85;;;;;;;24.07;49.22;103225.78;5012242;28;20058;-44
2022/07/08 08:28:15;;;;;;;7.30;1.88;;;;;;;24.61;46.61;103218.03;5009277;28;20058;-45
2022/07/08 08:30:42;;;;;;;6.68;1.75;;;;;;;24.22;46.15;103223.75;5013159;28;20056;-45
2022/07/08 08:33:08;;;;;;;5.97;1.92;;;;;;;23.99;48.73;103221.97;5015349;28;20498;-46
2022/07/08 08:35:35;;;;;;;6.90;2.30;;;;;;;24.29;49.09;103224.59;5014862;28;20051;-44
2022/07/08 08:38:01;;;;;;;3.08;1.60;;;;;;;24.47;47.92;103224.31;5015750;28;20057;-47
2022/07/08 08:40:28;;;;;;;3.80;1.90;;;;;;;24.50;48.30;103223.34;5015283;28;20583;-46
2022/07/08 08:42:55;;;;;;;4.53;1.95;;;;;;;24.97;47.80;103224.84;5014272;28;20067;-49
2022/07/08 08:45:27;;;;;;;3.72;1.60;;;;;;;25.60;43.58;103227.56;5015583;28;20070;-45
2022/07/08 08:47:58;;;;;;;2.97;1.63;;;;;;;25.56;43.95;103227.06;5015589;28;20470;-46
2022/07/08 08:53:15;;;;;;;6.45;1.65;;;;;;;25.29;48.21;103216.69;5014778;28;20078;-46
2022/07/08 08:55:44;;;;;;;8.27;2.13;;;;;;;25.70;47.22;103218.00;5015603;28;20463;-45
2022/07/08 08:58:10;;;;;;;3.70;1.52;;;;;;;25.90;46.12;103217.88;5015642;28;20141;-48
2022/07/08 09:00:37;;;;;;;6.20;2.10;;;;;;;25.62;45.88;103222.38;5015200;28;20050;-46
2022/07/08 09:03:04;;;;;;;5.45;2.08;;;;;;;25.25;48.58;103225.09;5015787;28;20057;-46
2022/07/08 09:05:32;;;;;;;7.10;1.80;;;;;;;26.08;45.87;103216.69;5015137;28;20055;-44
2022/07/08 09:07:58;;;;;;;5.03;1.77;;;;;;;26.74;45.90;103214.69;5015202;28;20491;-47
2022/07/08 09:10:26;;;;;;;4.53;1.90;;;;;;;27.02;41.71;103214.75;5015992;28;20054;-46
2022/07/08 09:13:12;;;;;;;7.63;1.65;;;;;;;26.41;43.30;103213.38;5015847;28;20579;-45
2022/07/08 09:15:44;;;;;;;3.75;1.60;;;;;;;26.17;46.91;103211.03;5015338;28;20828;-46
2022/07/08 09:18:16;;;;;;;5.18;2.17;;;;;;;27.13;44.02;103215.50;5015484;28;20054;-47
2022/07/08 09:20:46;;;;;;;28.08;2.97;;;;;;;26.66;41.88;103219.16;5010102;28;20116;-46
2022/07/08 09:23:16;;;;;;;7.78;1.90;;;;;;;26.43;42.71;103213.63;5013698;28;20081;-46
2022/07/08 09:25:45;;;;;;;4.63;2.03;;;;;;;26.77;45.53;103213.72;5014395;28;20056;-45
2022/07/08 09:28:12;;;;;;;8.02;2.15;;;;;;;26.67;43.10;103215.94;5014075;28;20058;-46
2022/07/08 09:30:39;;;;;;;5.18;2.03;;;;;;;27.26;42.19;103217.72;5011771;28;20519;-45
2022/07/08 09:33:05;;;;;;;10.30;1.90;;;;;;;27.05;41.66;103209.03;5010247;28;20057;-45
2022/07/08 09:35:35;;;;;;;12.68;2.22;;;;;;;27.21;40.53;103215.72;5014077;28;20065;-46
2022/07/08 09:38:06;;;;;;;5.32;2.15;;;;;;;27.18;42.68;103211.28;5014589;28;20112;-46
2022/07/08 09:40:33;;;;;;;5.63;2.22;;;;;;;27.46;41.82;103219.44;5013309;28;20919;-45
2022/07/08 09:43:02;;;;;;;4.75;2.05;;;;;;;27.98;45.78;103219.59;5014312;28;20046;-46
2022/07/08 09:45:33;;;;;;;4.60;2.47;;;;;;;28.44;41.23;103215.38;5012879;28;20078;-50
2022/07/08 09:48:07;;;;;;;6.18;2.00;;;;;;;27.93;43.02;103220.34;5015003;28;20141;-48
2022/07/08 09:50:41;;;;;;;3.67;2.10;;;;;;;26.82;43.07;103215.69;5013820;28;20066;-45
2022/07/08 09:53:28;;;;;;;3.25;1.83;;;;;;;27.14;42.59;103227.19;5013208;28;21081;-45
2022/07/08 09:55:56;;;;;;;4.70;1.80;;;;;;;26.40;43.04;103211.13;5014468;28;20054;-45
2022/07/08 09:58:28;;;;;;;7.45;2.25;;;;;;;25.97;43.51;103210.47;5014571;28;20142;-45
2022/07/08 10:00:56;;;;;;;5.63;1.98;;;;;;;25.55;44.64;103206.50;5013800;28;20578;-45
2022/07/08 10:03:23;;;;;;;5.97;2.10;;;;;;;25.44;48.36;103206.41;5010119;28;20082;-49
2022/07/08 10:05:51;;;;;;;3.22;2.00;;;;;;;25.49;47.67;103203.72;5014442;28;20050;-47
2022/07/08 10:08:18;;;;;;;8.30;2.33;;;;;;;25.66;46.34;103198.38;5012422;28;20055;-46
2022/07/08 10:10:48;;;;;;;3.13;1.85;;;;;;;25.94;49.26;103205.97;5013033;28;20510;-46
2022/07/08 10:13:18;;;;;;;6.72;2.05;;;;;;;26.95;45.26;103207.00;5012946;28;20129;-45
2022/07/08 10:15:47;;;;;;;7.95;1.95;;;;;;;27.91;46.71;103216.63;5014143;28;20054;-46
2022/07/08 10:18:17;;;;;;;3.75;2.08;;;;;;;28.50;44.22;103218.84;5013704;28;20061;-48
2022/07/08 10:20:49;;;;;;;6.32;1.80;;;;;;;28.82;41.93;103213.66;5013539;28;20474;-46
2022/07/08 10:23:32;;;;;;;12.70;2.00;;;;;;;27.68;44.08;103216.69;5014402;28;20050;-46
2022/07/08 10:26:00;;;;;;;6.60;2.50;;;;;;;27.65;43.32;103214.94;5013608;28;20085;-45
2022/07/08 10:28:59;;;;;;;5.68;2.30;;;;;;;28.37;42.32;103211.22;5014260;28;20073;-47
2022/07/08 10:31:29;;;;;;;4.00;2.17;;;;;;;28.37;40.02;103213.22;5024592;28;20054;-47
2022/07/08 10:34:02;;;;;;;3.47;1.90;;;;;;;27.21;45.78;103211.00;5012923;28;20050;-46
2022/07/08 10:36:28;;;;;;;3.67;2.15;;;;;;;27.87;46.10;103206.69;5014152;28;20046;-46
2022/07/08 10:38:55;;;;;;;4.70;1.95;;;;;;;28.17;42.46;103204.06;5012914;28;20054;-46
2022/07/08 10:41:26;;;;;;;5.53;2.20;;;;;;;28.09;43.82;103211.31;5013250;28;20065;-47
2022/07/08 10:43:54;;;;;;;3.30;1.60;;;;;;;28.72;43.30;103213.22;5010173;28;20061;-45
2022/07/08 10:46:21;;;;;;;7.15;2.42;;;;;;;28.74;40.11;103207.25;5013316;28;20050;-46
2022/07/08 10:48:56;;;;;;;8.05;2.05;;;;;;;29.10;41.80;103197.00;5013611;28;20538;-46
2022/07/08 10:51:24;;;;;;;7.47;1.98;;;;;;;29.51;38.55;103188.66;5012228;28;20061;-48
2022/07/08 10:54:08;;;;;;;7.93;1.90;;;;;;;29.15;38.29;103193.47;5010998;28;20058;-46
2022/07/08 10:56:58;;;;;;;6.43;2.08;;;;;;;29.05;38.49;103193.06;5012331;28;20050;-46
2022/07/08 10:59:32;;;;;;;2.42;1.80;;;;;;;28.90;41.63;103202.91;5028741;28;20055;-46
2022/07/08 11:02:04;;;;;;;3.60;1.70;;;;;;;29.20;39.65;103195.41;5013674;28;20050;-48
2022/07/08 11:04:33;;;;;;;3.58;2.08;;;;;;;29.13;39.42;103194.00;5007462;28;20062;-47
2022/07/08 11:07:14;;;;;;;2.03;1.63;;;;;;;29.31;41.18;103180.84;5012055;28;20064;-46
2022/07/08 11:09:42;;;;;;;8.02;2.03;;;;;;;29.29;42.67;103181.34;5012418;28;20054;-45
2022/07/08 11:12:12;;;;;;;3.63;2.08;;;;;;;29.69;42.74;103189.94;5013220;28;20057;-47
2022/07/08 11:14:47;;;;;;;5.72;1.73;;;;;;;29.59;41.56;103189.53;5014307;28;20137;-47
2022/07/08 11:17:17;;;;;;;4.80;1.92;;;;;;;29.84;40.03;103190.25;5013614;28;20463;-47
2022/07/08 11:19:46;;;;;;;5.72;1.90;;;;;;;30.13;40.83;103185.91;5014295;28;20482;-48
2022/07/08 11:22:13;;;;;;;5.50;1.90;;;;;;;29.91;37.38;103186.94;5013704;28;20145;-46
2022/07/08 11:24:52;;;;;;;3.38;1.77;;;;;;;29.39;44.34;103187.25;5014097;28;20058;-48
2022/07/08 11:27:26;;;;;;;3.28;1.77;;;;;;;28.64;41.19;103190.38;5013666;28;20172;-47
2022/07/08 11:29:53;;;;;;;4.50;2.10;;;;;;;28.17;45.17;103182.16;5013561;28;20058;-47
2022/07/08 11:32:21;;;;;;;3.38;1.80;;;;;;;28.59;43.83;103188.41;5013128;28;20522;-45